Time;durP1;ratioP1;P1;durP2;ratioP2;P2;SDS_P1;SDS_P2;PMS_P1;PMS_P2;Temp;Humidity;BMP_temperature;BMP_pressure;BME280_temperature;BME280_humidity;BME280_pressure;Samples;Min_cycle;Max_cycle;Signal;HPM_P1;HPM_P2
2022/01/22 00:00:59;;;;;;;3.72;0.60;;;;;;;;;;5051679;28;20056;-75
2022/01/22 00:03:26;;;;;;;5.68;0.57;;;;;;;;;;5053583;28;20021;-76
2022/01/22 00:05:53;;;;;;;3.65;0.50;;;;;;;;;;5053131;28;20492;-75
2022/01/22 00:08:20;;;;;;;3.80;0.65;;;;;;;;;;5053172;28;20388;-75
2022/01/22 00:10:50;;;;;;;1.63;0.52;;;;;;;;;;5051871;28;20024;-74
2022/01/22 00:15:50;;;;;;;2.10;0.70;;;;;;;;;;5053431;28;20025;-77
2022/01/22 00:18:17;;;;;;;4.35;0.82;;;;;;;;;;5052745;28;20039;-77
2022/01/22 00:20:46;;;;;;;3.17;0.63;;;;;;;;;;5053744;28;20103;-77
2022/01/22 00:23:16;;;;;;;2.35;0.57;;;;;;;;;;5051365;28;20025;-75
2022/01/22 00:25:43;;;;;;;4.30;0.70;;;;;;;;;;5053072;28;20363;-77
2022/01/22 00:28:10;;;;;;;3.90;0.60;;;;;;;;;;5052924;28;20024;-75
2022/01/22 00:30:37;;;;;;;4.20;0.70;;;;;;;;;;5053244;28;20103;-77
2022/01/22 00:33:04;;;;;;;2.78;0.80;;;;;;;;;;5052139;28;20025;-78
2022/01/22 00:35:33;;;;;;;3.47;0.60;;;;;;;;;;5052010;28;20178;-77
2022/01/22 00:38:00;;;;;;;4.13;0.73;;;;;;;;;;5052666;28;20098;-76
2022/01/22 00:40:28;;;;;;;6.50;1.52;;;;;;;;;;5053298;28;20112;-77
2022/01/22 00:42:55;;;;;;;5.10;0.88;;;;;;;;;;5053012;28;20036;-77
2022/01/22 00:45:22;;;;;;;2.85;0.70;;;;;;;;;;5051702;28;20029;-77
2022/01/22 00:47:50;;;;;;;2.55;0.63;;;;;;;;;;5052910;28;20540;-76
2022/01/22 00:50:18;;;;;;;4.28;0.70;;;;;;;;;;5051315;28;20025;-76
2022/01/22 00:52:46;;;;;;;4.55;1.30;;;;;;;;;;5051370;28;20095;-76
2022/01/22 00:55:14;;;;;;;2.78;0.70;;;;;;;;;;5052668;28;20025;-75
2022/01/22 00:57:43;;;;;;;4.78;0.80;;;;;;;;;;5052564;28;20025;-75
2022/01/22 01:00:11;;;;;;;2.53;0.75;;;;;;;;;;5052699;28;20432;-74
2022/01/22 01:02:39;;;;;;;3.25;0.68;;;;;;;;;;5052627;28;20049;-74
2022/01/22 01:05:10;;;;;;;4.40;0.68;;;;;;;;;;5052735;28;20057;-77
2022/01/22 01:07:38;;;;;;;3.22;0.60;;;;;;;;;;5058522;28;20114;-76
2022/01/22 01:10:06;;;;;;;4.95;0.77;;;;;;;;;;5036321;28;20029;-75
2022/01/22 01:12:36;;;;;;;3.83;0.75;;;;;;;;;;5053192;28;20052;-78
2022/01/22 01:34:10;;;;;;;2.95;0.63;;;;;;;;;;5054730;28;20039;-75
2022/01/22 01:36:38;;;;;;;2.95;0.70;;;;;;;;;;5056304;28;20021;-76
2022/01/22 01:39:09;;;;;;;4.20;0.82;;;;;;;;;;5055836;28;20509;-75
2022/01/22 01:42:00;;;;;;;2.67;0.80;;;;;;;;;;5054497;28;20024;-75
2022/01/22 01:44:27;;;;;;;2.03;0.50;;;;;;;;;;5056725;28;20066;-77
2022/01/22 01:46:57;;;;;;;4.53;0.90;;;;;;;;;;5057974;28;20409;-74
2022/01/22 01:49:25;;;;;;;2.08;0.40;;;;;;;;;;5056102;28;20496;-75
2022/01/22 01:51:54;;;;;;;3.30;0.60;;;;;;;;;;5054667;28;20021;-75
2022/01/22 01:54:33;;;;;;;3.28;0.75;;;;;;;;;;5056065;28;20029;-76
2022/01/22 01:59:48;;;;;;;2.92;0.43;;;;;;;;;;5056098;28;20039;-75
2022/01/22 02:02:15;;;;;;;3.20;0.60;;;;;;;;;;5055612;28;20504;-75
2022/01/22 02:04:42;;;;;;;3.03;0.70;;;;;;;;;;5053760;28;20410;-74
2022/01/22 02:07:10;;;;;;;2.30;0.50;;;;;;;;;;5054029;28;20025;-75
2022/01/22 02:09:39;;;;;;;2.15;0.50;;;;;;;;;;5055249;28;20489;-74
2022/01/22 02:12:14;;;;;;;2.85;0.68;;;;;;;;;;5055270;28;20394;-75
2022/01/22 02:25:43;;;;;;;2.63;0.63;;;;;;;;;;5055098;28;20517;-75
2022/01/22 02:28:12;;;;;;;2.03;0.40;;;;;;;;;;5053900;28;20032;-75
2022/01/22 02:30:43;;;;;;;3.55;0.55;;;;;;;;;;5053685;28;20032;-76
2022/01/22 02:39:03;;;;;;;2.03;0.50;;;;;;;;;;5054857;28;20389;-75
2022/01/22 02:41:31;;;;;;;2.30;0.70;;;;;;;;;;5053578;28;20021;-75
2022/01/22 02:43:58;;;;;;;4.03;0.50;;;;;;;;;;5053267;28;20017;-75
2022/01/22 02:46:28;;;;;;;3.17;1.00;;;;;;;;;;5054324;28;20179;-76
2022/01/22 02:48:56;;;;;;;3.78;0.70;;;;;;;;;;5055391;28;20551;-75
2022/01/22 02:51:24;;;;;;;5.22;0.82;;;;;;;;;;5054857;28;20108;-76
2022/01/22 02:53:54;;;;;;;3.60;0.70;;;;;;;;;;5054869;28;20124;-76
2022/01/22 02:56:23;;;;;;;2.95;0.60;;;;;;;;;;5054438;28;20028;-76
2022/01/22 02:58:50;;;;;;;2.90;0.88;;;;;;;;;;5053614;28;20025;-75
2022/01/22 03:01:18;;;;;;;4.25;0.85;;;;;;;;;;5053413;28;20021;-76
2022/01/22 03:03:46;;;;;;;2.85;0.77;;;;;;;;;;5052549;28;20416;-77
2022/01/22 03:06:15;;;;;;;3.95;0.63;;;;;;;;;;5054188;28;20017;-74
2022/01/22 03:08:44;;;;;;;5.80;0.90;;;;;;;;;;5053967;28;20449;-76
2022/01/22 03:11:25;;;;;;;3.05;0.65;;;;;;;;;;5053822;28;20108;-76
2022/01/22 03:14:47;;;;;;;;;;;;;;;;;;5054465;28;20021;-75
2022/01/22 03:22:22;;;;;;;;;;;;;;;;;;5054746;28;20033;-77
2022/01/22 03:27:35;;;;;;;5.20;0.60;;;;;;;;;;5054588;28;20036;-77
2022/01/22 03:30:02;;;;;;;2.45;0.60;;;;;;;;;;5054284;28;20021;-76
2022/01/22 03:32:36;;;;;;;2.67;0.60;;;;;;;;;;5055234;28;20052;-78
2022/01/22 03:35:53;;;;;;;3.58;0.90;;;;;;;;;;5053060;28;20482;-77
2022/01/22 03:37:55;;;;;;;6.63;0.75;;;;;;;;;;5056058;28;20040;-77
2022/01/22 03:40:24;;;;;;;2.95;0.52;;;;;;;;;;5054173;28;20032;-77
2022/01/22 03:42:52;;;;;;;5.00;0.93;;;;;;;;;;5053572;28;20397;-77
2022/01/22 03:45:20;;;;;;;4.75;1.02;;;;;;;;;;5055349;28;20029;-78
2022/01/22 03:47:47;;;;;;;3.38;0.75;;;;;;;;;;5054546;28;20049;-80
2022/01/22 03:50:16;;;;;;;4.43;0.60;;;;;;;;;;5055692;28;20024;-77
2022/01/22 03:52:43;;;;;;;4.28;1.02;;;;;;;;;;5053834;28;20029;-76
2022/01/22 03:55:21;;;;;;;3.83;0.70;;;;;;;;;;5054267;28;20492;-78
2022/01/22 03:57:48;;;;;;;4.78;0.60;;;;;;;;;;5053827;28;20492;-79
2022/01/22 04:00:15;;;;;;;3.15;0.50;;;;;;;;;;5055017;28;20059;-79
2022/01/22 04:05:28;;;;;;;3.17;0.50;;;;;;;;;;5053399;28;20048;-75
2022/01/22 04:08:17;;;;;;;4.60;0.80;;;;;;;;;;5053641;28;20055;-79
2022/01/22 04:10:44;;;;;;;5.22;1.05;;;;;;;;;;5054010;28;20025;-79
2022/01/22 04:13:14;;;;;;;4.97;0.90;;;;;;;;;;5053106;28;20035;-78
2022/01/22 04:15:42;;;;;;;4.60;0.93;;;;;;;;;;5053253;28;20021;-78
2022/01/22 04:28:52;;;;;;;4.28;1.10;;;;;;;;;;5054105;28;20025;-79
2022/01/22 04:31:19;;;;;;;4.97;0.70;;;;;;;;;;5053970;28;20033;-79
2022/01/22 04:33:47;;;;;;;4.50;0.80;;;;;;;;;;5052246;28;20032;-79
2022/01/22 04:36:14;;;;;;;6.00;0.93;;;;;;;;;;5054010;28;20051;-78
2022/01/22 04:38:44;;;;;;;6.90;0.80;;;;;;;;;;5052052;28;20043;-79
2022/01/22 04:41:12;;;;;;;4.03;0.63;;;;;;;;;;5054017;28;20021;-78
2022/01/22 04:43:41;;;;;;;3.92;0.70;;;;;;;;;;5052278;28;20500;-79
2022/01/22 04:56:39;;;;;;;2.90;0.60;;;;;;;;;;5055045;28;20040;-78
2022/01/22 04:59:06;;;;;;;3.47;0.70;;;;;;;;;;5052653;28;20033;-80
2022/01/22 05:01:33;;;;;;;3.08;0.57;;;;;;;;;;5053436;28;20033;-78
2022/01/22 05:04:00;;;;;;;3.53;0.50;;;;;;;;;;5053531;28;20111;-79
2022/01/22 05:06:30;;;;;;;;;;;;;;;;;;5054672;28;20025;-78
2022/01/22 05:08:57;;;;;;;3.33;0.50;;;;;;;;;;5054636;28;19905;-78
2022/01/22 05:11:25;;;;;;;4.03;0.80;;;;;;;;;;5056118;28;20036;-76
2022/01/22 05:13:53;;;;;;;5.40;0.82;;;;;;;;;;5057067;28;20096;-77
2022/01/22 05:16:22;;;;;;;3.70;0.85;;;;;;;;;;5057205;28;20025;-76
2022/01/22 05:18:56;;;;;;;3.78;0.90;;;;;;;;;;5056557;28;20449;-75
2022/01/22 05:21:24;;;;;;;5.47;0.95;;;;;;;;;;5057247;28;20094;-76
2022/01/22 05:23:53;;;;;;;4.47;0.80;;;;;;;;;;5054895;28;20104;-75
2022/01/22 05:27:19;;;;;;;6.20;0.73;;;;;;;;;;5056772;28;20462;-75
2022/01/22 05:37:09;;;;;;;6.00;1.13;;;;;;;;;;5057674;28;20086;-79
2022/01/22 05:39:37;;;;;;;4.07;0.93;;;;;;;;;;5056492;28;20025;-74
2022/01/22 05:42:06;;;;;;;2.10;0.43;;;;;;;;;;5056170;28;20474;-76
2022/01/22 05:44:33;;;;;;;4.03;0.70;;;;;;;;;;5054534;28;20108;-76
2022/01/22 05:47:05;;;;;;;5.75;0.65;;;;;;;;;;5054785;28;20025;-77
2022/01/22 05:49:37;;;;;;;4.47;0.77;;;;;;;;;;5055670;28;20021;-77
2022/01/22 05:52:06;;;;;;;3.92;1.10;;;;;;;;;;5055128;28;20086;-74
2022/01/22 05:54:53;;;;;;;6.23;1.20;;;;;;;;;;5055488;28;20018;-76
2022/01/22 06:00:25;;;;;;;3.38;0.68;;;;;;;;;;5073318;28;20059;-76
2022/01/22 06:02:52;;;;;;;2.92;0.70;;;;;;;;;;5073453;28;20029;-77
2022/01/22 06:05:21;;;;;;;4.00;0.85;;;;;;;;;;5053356;28;20106;-77
2022/01/22 06:07:48;;;;;;;2.92;0.68;;;;;;;;;;5054189;28;20048;-77
2022/01/22 06:10:17;;;;;;;4.28;0.60;;;;;;;;;;5055468;28;20029;-77
2022/01/22 06:13:09;;;;;;;3.53;0.70;;;;;;;;;;5055243;28;20023;-76
2022/01/22 06:15:31;;;;;;;3.85;0.70;;;;;;;;;;5055079;28;20037;-76
2022/01/22 06:17:59;;;;;;;4.45;0.70;;;;;;;;;;5054002;28;20447;-77
2022/01/22 06:20:26;;;;;;;5.32;1.10;;;;;;;;;;5052652;28;20052;-77
2022/01/22 06:22:53;;;;;;;5.00;0.80;;;;;;;;;;5053773;28;20018;-76
2022/01/22 06:25:20;;;;;;;4.22;1.05;;;;;;;;;;5054959;28;20021;-76
2022/01/22 06:27:47;;;;;;;6.38;1.77;;;;;;;;;;5054930;28;20052;-77
2022/01/22 06:30:15;;;;;;;7.55;2.50;;;;;;;;;;5054982;28;20017;-76
2022/01/22 06:32:42;;;;;;;7.60;2.45;;;;;;;;;;5054922;28;20048;-76
2022/01/22 06:35:12;;;;;;;8.02;4.25;;;;;;;;;;5053509;28;20036;-77
2022/01/22 06:37:38;;;;;;;;;;;;;;;;;;5054234;28;20107;-76
2022/01/22 06:42:35;;;;;;;6.07;0.85;;;;;;;;;;5054665;28;20017;-76
2022/01/22 06:45:03;;;;;;;3.90;1.15;;;;;;;;;;5053597;28;20079;-77
2022/01/22 06:47:31;;;;;;;4.30;1.08;;;;;;;;;;5055067;28;20550;-76
2022/01/22 06:49:58;;;;;;;4.07;1.00;;;;;;;;;;5053293;28;20090;-77
2022/01/22 06:52:26;;;;;;;5.35;0.80;;;;;;;;;;5053292;28;20109;-77
2022/01/22 06:54:53;;;;;;;3.65;0.85;;;;;;;;;;5053688;28;20037;-78
2022/01/22 06:57:20;;;;;;;3.00;0.82;;;;;;;;;;5054379;28;20052;-77
2022/01/22 06:59:48;;;;;;;5.35;0.85;;;;;;;;;;5054386;28;20032;-77
2022/01/22 07:02:15;;;;;;;5.57;0.70;;;;;;;;;;5054369;28;20020;-77
2022/01/22 07:04:42;;;;;;;4.68;0.80;;;;;;;;;;5053944;28;20037;-77
2022/01/22 07:07:12;;;;;;;4.65;0.80;;;;;;;;;;5052864;28;20025;-76
2022/01/22 07:09:39;;;;;;;6.03;1.23;;;;;;;;;;5054152;28;20021;-76
2022/01/22 07:12:07;;;;;;;4.30;1.10;;;;;;;;;;5053980;28;20024;-76
2022/01/22 07:14:34;;;;;;;3.55;0.90;;;;;;;;;;5054175;28;20021;-77
2022/01/22 07:17:01;;;;;;;4.00;0.80;;;;;;;;;;5054304;28;20047;-76
2022/01/22 07:19:37;;;;;;;5.20;1.08;;;;;;;;;;5054104;28;20036;-77
2022/01/22 07:22:19;;;;;;;5.68;1.08;;;;;;;;;;5056181;28;20057;-78
2022/01/22 07:24:46;;;;;;;4.43;0.93;;;;;;;;;;5053624;28;20112;-78
2022/01/22 07:27:13;;;;;;;3.20;0.95;;;;;;;;;;5054635;28;20021;-78
2022/01/22 07:29:43;;;;;;;4.78;1.17;;;;;;;;;;5054697;28;20414;-77
2022/01/22 07:32:17;;;;;;;7.22;1.30;;;;;;;;;;5052465;28;20017;-76
2022/01/22 07:34:44;;;;;;;5.75;1.05;;;;;;;;;;5052822;28;20513;-77
2022/01/22 07:37:11;;;;;;;5.60;1.00;;;;;;;;;;5053771;28;20122;-78
2022/01/22 07:39:39;;;;;;;6.85;1.27;;;;;;;;;;5053661;28;20028;-77
2022/01/22 07:42:06;;;;;;;5.93;1.90;;;;;;;;;;5054531;28;20028;-77
2022/01/22 07:44:34;;;;;;;8.35;1.38;;;;;;;;;;5053811;28;20021;-79
2022/01/22 07:47:01;;;;;;;5.97;1.25;;;;;;;;;;5054651;28;20424;-78
2022/01/22 07:49:29;;;;;;;8.18;1.58;;;;;;;;;;5053863;28;20504;-77
2022/01/22 07:51:56;;;;;;;7.38;1.65;;;;;;;;;;5054453;28;20100;-78
2022/01/22 07:54:26;;;;;;;6.15;0.93;;;;;;;;;;5052361;28;20021;-77
2022/01/22 07:56:53;;;;;;;5.18;1.00;;;;;;;;;;5053747;28;20111;-76
2022/01/22 07:59:21;;;;;;;5.93;1.23;;;;;;;;;;5052253;28;20028;-78
2022/01/22 08:01:48;;;;;;;6.35;1.10;;;;;;;;;;5052097;28;20064;-77
2022/01/22 08:04:22;;;;;;;5.57;1.10;;;;;;;;;;5052070;28;20509;-76
2022/01/22 08:06:50;;;;;;;7.90;1.45;;;;;;;;;;5052310;28;20025;-77
2022/01/22 08:09:17;;;;;;;7.57;1.25;;;;;;;;;;5052751;28;20119;-76
2022/01/22 08:11:44;;;;;;;5.93;0.90;;;;;;;;;;5054042;28;20082;-75
2022/01/22 08:14:11;;;;;;;4.97;1.15;;;;;;;;;;5052616;28;20021;-76
2022/01/22 08:16:38;;;;;;;8.18;1.40;;;;;;;;;;5052276;28;20056;-76
2022/01/22 08:19:06;;;;;;;4.13;0.90;;;;;;;;;;5052491;28;20387;-77
2022/01/22 08:21:33;;;;;;;4.07;1.10;;;;;;;;;;5052023;28;20037;-76
2022/01/22 08:24:00;;;;;;;5.00;1.17;;;;;;;;;;5053637;28;20386;-76
2022/01/22 08:26:32;;;;;;;5.72;1.05;;;;;;;;;;5053410;28;20431;-76
2022/01/22 08:29:00;;;;;;;8.00;1.20;;;;;;;;;;5053091;28;20029;-77
2022/01/22 08:36:57;;;;;;;7.28;1.30;;;;;;;;;;5069120;28;20381;-77
2022/01/22 08:39:26;;;;;;;8.15;1.52;;;;;;;;;;5051929;28;20032;-76
2022/01/22 08:41:54;;;;;;;7.90;1.30;;;;;;;;;;5052105;28;20083;-77
2022/01/22 08:44:22;;;;;;;8.05;1.58;;;;;;;;;;5056238;28;20025;-76
2022/01/22 08:46:49;;;;;;;7.28;1.30;;;;;;;;;;5056023;28;20025;-77
2022/01/22 08:49:16;;;;;;;6.88;1.65;;;;;;;;;;5055841;28;20024;-77
2022/01/22 08:51:43;;;;;;;6.13;1.27;;;;;;;;;;5056151;28;20032;-78
2022/01/22 08:54:11;;;;;;;8.02;1.63;;;;;;;;;;5056982;28;20029;-77
2022/01/22 08:56:39;;;;;;;5.65;1.20;;;;;;;;;;5055478;28;20025;-78
2022/01/22 08:59:07;;;;;;;7.18;1.50;;;;;;;;;;5055407;28;20187;-76
2022/01/22 09:01:34;;;;;;;8.35;1.98;;;;;;;;;;5056622;28;20477;-75
2022/01/22 09:04:01;;;;;;;8.95;1.58;;;;;;;;;;5056244;28;20124;-77
2022/01/22 09:06:29;;;;;;;7.65;1.50;;;;;;;;;;5056662;28;20027;-78
2022/01/22 09:09:07;;;;;;;6.60;1.90;;;;;;;;;;5055499;28;20029;-76
2022/01/22 09:11:34;;;;;;;7.57;1.58;;;;;;;;;;5056694;28;20473;-77
2022/01/22 09:14:02;;;;;;;6.78;1.67;;;;;;;;;;5056384;28;20029;-77
2022/01/22 09:16:29;;;;;;;7.13;1.48;;;;;;;;;;5056721;28;20068;-76
2022/01/22 09:19:01;;;;;;;4.47;1.17;;;;;;;;;;5056477;28;20049;-79
2022/01/22 09:21:28;;;;;;;8.93;1.80;;;;;;;;;;5056432;28;20036;-76
2022/01/22 09:23:55;;;;;;;8.38;1.40;;;;;;;;;;5054934;28;20718;-76
2022/01/22 09:26:22;;;;;;;8.35;1.80;;;;;;;;;;5056143;28;20098;-77
2022/01/22 09:28:50;;;;;;;7.85;1.65;;;;;;;;;;5054848;28;20025;-75
2022/01/22 09:31:17;;;;;;;7.45;1.63;;;;;;;;;;5054782;28;20036;-75
2022/01/22 09:33:44;;;;;;;6.30;1.85;;;;;;;;;;5054815;28;20032;-76
2022/01/22 09:36:11;;;;;;;5.88;1.60;;;;;;;;;;5054677;28;20498;-76
2022/01/22 09:38:39;;;;;;;6.22;1.45;;;;;;;;;;5055956;28;20028;-76
2022/01/22 09:41:06;;;;;;;6.13;1.30;;;;;;;;;;5055851;28;20108;-75
2022/01/22 09:43:33;;;;;;;5.65;1.42;;;;;;;;;;5054604;28;20021;-76
2022/01/22 09:46:00;;;;;;;5.47;1.30;;;;;;;;;;5055909;28;20120;-76
2022/01/22 09:48:28;;;;;;;7.63;1.65;;;;;;;;;;5054490;28;20394;-75
2022/01/22 09:50:55;;;;;;;4.72;1.42;;;;;;;;;;5054556;28;20028;-75
2022/01/22 09:53:22;;;;;;;9.35;1.40;;;;;;;;;;5054440;28;20024;-75
2022/01/22 09:55:51;;;;;;;5.88;1.42;;;;;;;;;;5054309;28;20021;-75
2022/01/22 09:58:18;;;;;;;5.57;1.35;;;;;;;;;;5054385;28;20052;-76
2022/01/22 10:00:45;;;;;;;5.90;1.58;;;;;;;;;;5054167;28;20033;-76
2022/01/22 10:03:20;;;;;;;5.05;1.60;;;;;;;;;;5054242;28;20112;-75
2022/01/22 10:05:48;;;;;;;4.93;1.30;;;;;;;;;;5054104;28;20091;-76
2022/01/22 10:08:24;;;;;;;7.57;1.30;;;;;;;;;;5054103;28;20486;-75
2022/01/22 10:10:52;;;;;;;9.25;1.48;;;;;;;;;;5054137;28;20394;-75
2022/01/22 10:13:41;;;;;;;6.88;1.27;;;;;;;;;;5055370;28;20486;-76
2022/01/22 10:16:22;;;;;;;4.95;1.17;;;;;;;;;;5055467;28;20078;-75
2022/01/22 10:18:48;;;;;;;;;;;;;;;;;;5055620;28;20032;-76
2022/01/22 10:21:16;;;;;;;3.90;0.90;;;;;;;;;;5055072;28;19962;-75
2022/01/22 10:23:44;;;;;;;5.45;1.08;;;;;;;;;;5055161;28;20502;-75
2022/01/22 10:26:12;;;;;;;6.15;1.40;;;;;;;;;;5053877;28;20021;-77
2022/01/22 10:28:46;;;;;;;6.25;1.65;;;;;;;;;;5053833;28;20024;-77
2022/01/22 10:31:25;;;;;;;10.13;1.70;;;;;;;;;;5053936;28;20508;-77
2022/01/22 10:34:11;;;;;;;7.25;2.03;;;;;;;;;;5055263;28;20024;-75
2022/01/22 10:36:39;;;;;;;8.50;2.20;;;;;;;;;;5053631;28;20512;-77
2022/01/22 10:39:11;;;;;;;8.63;1.70;;;;;;;;;;5054904;28;20021;-76
2022/01/22 10:41:40;;;;;;;7.50;1.70;;;;;;;;;;5053469;28;20393;-76
2022/01/22 10:44:09;;;;;;;7.18;2.05;;;;;;;;;;5053483;28;20021;-75
2022/01/22 10:46:44;;;;;;;7.82;1.60;;;;;;;;;;5053407;28;20025;-76
2022/01/22 10:49:12;;;;;;;6.10;1.83;;;;;;;;;;5053398;28;20108;-76
2022/01/22 10:51:47;;;;;;;5.75;1.60;;;;;;;;;;5053361;28;20030;-76
2022/01/22 10:54:14;;;;;;;9.07;1.90;;;;;;;;;;5053333;28;20398;-77
2022/01/22 10:56:41;;;;;;;8.23;1.85;;;;;;;;;;5053198;28;20029;-76
2022/01/22 10:59:14;;;;;;;5.28;1.70;;;;;;;;;;5054548;28;20025;-76
2022/01/22 11:01:47;;;;;;;5.38;1.40;;;;;;;;;;5053074;28;20032;-77
2022/01/22 11:04:16;;;;;;;7.15;1.60;;;;;;;;;;5052825;28;20057;-77
2022/01/22 11:06:49;;;;;;;5.85;1.27;;;;;;;;;;5053934;28;20474;-77
2022/01/22 11:09:18;;;;;;;7.70;1.55;;;;;;;;;;5054248;28;20021;-77
2022/01/22 11:11:45;;;;;;;7.85;1.92;;;;;;;;;;5036506;28;20036;-78
2022/01/22 11:14:14;;;;;;;5.60;1.55;;;;;;;;;;5052912;28;20107;-77
2022/01/22 11:16:42;;;;;;;3.15;1.40;;;;;;;;;;5052893;28;20035;-77
2022/01/22 11:19:11;;;;;;;6.10;1.60;;;;;;;;;;5052751;28;20024;-77
2022/01/22 11:21:41;;;;;;;5.65;1.20;;;;;;;;;;5052473;28;20025;-77
2022/01/22 11:24:14;;;;;;;5.95;1.30;;;;;;;;;;5052642;28;20051;-77
2022/01/22 11:26:45;;;;;;;3.58;1.17;;;;;;;;;;5053990;28;20025;-76
2022/01/22 11:29:13;;;;;;;8.00;1.20;;;;;;;;;;5052582;28;20074;-76
2022/01/22 11:31:45;;;;;;;6.50;1.70;;;;;;;;;;5053868;28;20025;-75
2022/01/22 11:34:14;;;;;;;4.32;1.10;;;;;;;;;;5036431;28;20040;-76
2022/01/22 11:36:47;;;;;;;4.43;1.10;;;;;;;;;;5052468;28;20429;-76
2022/01/22 11:39:21;;;;;;;5.22;1.20;;;;;;;;;;5053694;28;20394;-76
2022/01/22 11:41:52;;;;;;;7.22;1.17;;;;;;;;;;5052188;28;20025;-76
2022/01/22 11:44:47;;;;;;;6.93;1.50;;;;;;;;;;5053600;28;20025;-76
2022/01/22 11:47:16;;;;;;;4.60;1.02;;;;;;;;;;5052229;28;20087;-75
2022/01/22 11:50:04;;;;;;;6.07;1.10;;;;;;;;;;5053508;28;20013;-75
2022/01/22 11:52:37;;;;;;;8.02;1.33;;;;;;;;;;5053397;28;20111;-75
2022/01/22 11:55:11;;;;;;;5.07;1.58;;;;;;;;;;5053387;28;20385;-76
2022/01/22 11:57:39;;;;;;;5.28;1.45;;;;;;;;;;5052007;28;20048;-77
2022/01/22 12:00:15;;;;;;;8.15;1.63;;;;;;;;;;5053274;28;20154;-78
2022/01/22 12:02:42;;;;;;;6.00;1.40;;;;;;;;;;5053255;28;20104;-76
2022/01/22 12:05:10;;;;;;;4.07;1.33;;;;;;;;;;5051746;28;20045;-76
2022/01/22 12:07:37;;;;;;;5.85;1.20;;;;;;;;;;5053210;28;20020;-75
2022/01/22 12:10:18;;;;;;;6.00;1.00;;;;;;;;;;5051891;28;20079;-76
2022/01/22 12:15:22;;;;;;;6.70;1.58;;;;;;;;;;5053314;28;20398;-75
2022/01/22 12:20:43;;;;;;;6.85;1.15;;;;;;;;;;5052926;28;20033;-76
2022/01/22 12:23:10;;;;;;;3.92;1.35;;;;;;;;;;5051759;28;20104;-76
2022/01/22 12:25:37;;;;;;;6.60;1.15;;;;;;;;;;5052978;28;20021;-75
2022/01/22 12:28:07;;;;;;;5.05;1.15;;;;;;;;;;5053028;28;20380;-76
2022/01/22 12:30:36;;;;;;;4.07;1.10;;;;;;;;;;5052961;28;20386;-77
2022/01/22 12:33:06;;;;;;;4.30;1.13;;;;;;;;;;5052877;28;20104;-76
2022/01/22 12:35:34;;;;;;;6.82;1.50;;;;;;;;;;5051685;28;20085;-76
2022/01/22 12:38:25;;;;;;;10.23;1.45;;;;;;;;;;5051566;28;20036;-76
2022/01/22 12:40:59;;;;;;;7.30;1.10;;;;;;;;;;5051507;28;20032;-76
2022/01/22 12:43:33;;;;;;;5.25;0.80;;;;;;;;;;5052876;28;20066;-77
2022/01/22 12:46:01;;;;;;;4.00;0.57;;;;;;;;;;5052813;28;20024;-77
2022/01/22 12:48:29;;;;;;;2.65;0.60;;;;;;;;;;5052726;28;20501;-77
2022/01/22 12:51:04;;;;;;;6.05;1.10;;;;;;;;;;5052718;28;20029;-77
2022/01/22 12:53:32;;;;;;;4.55;0.93;;;;;;;;;;5051424;28;20044;-77
2022/01/22 12:58:28;;;;;;;4.18;0.70;;;;;;;;;;5052721;28;20389;-76
2022/01/22 13:01:32;;;;;;;2.95;0.85;;;;;;;;;;5051277;28;20489;-76
2022/01/22 13:04:04;;;;;;;3.97;1.02;;;;;;;;;;5050322;28;20049;-76
2022/01/22 13:06:46;;;;;;;4.88;1.17;;;;;;;;;;5052236;28;20067;-76
2022/01/22 13:09:14;;;;;;;3.88;0.75;;;;;;;;;;5051303;28;20104;-76
2022/01/22 13:11:46;;;;;;;2.88;0.70;;;;;;;;;;5052540;28;20044;-76
2022/01/22 13:14:18;;;;;;;5.82;1.00;;;;;;;;;;5051451;28;20058;-76
2022/01/22 13:16:50;;;;;;;3.72;0.93;;;;;;;;;;5052417;28;20053;-76
2022/01/22 13:19:18;;;;;;;1.42;0.50;;;;;;;;;;5052453;28;20021;-76
2022/01/22 13:21:52;;;;;;;4.95;1.13;;;;;;;;;;5052398;28;20628;-76
2022/01/22 13:24:25;;;;;;;2.95;0.63;;;;;;;;;;5051166;28;20022;-75
2022/01/22 13:29:30;;;;;;;4.00;0.93;;;;;;;;;;5053811;28;20025;-76
2022/01/22 13:31:57;;;;;;;4.35;0.98;;;;;;;;;;5056045;28;20052;-76
2022/01/22 13:34:41;;;;;;;5.40;1.00;;;;;;;;;;5056169;28;20017;-75
2022/01/22 13:37:52;;;;;;;4.30;1.38;;;;;;;;;;5055978;28;20036;-75
2022/01/22 13:48:32;;;;;;;5.03;0.98;;;;;;;;;;5056107;28;20031;-75
2022/01/22 13:51:00;;;;;;;4.55;0.95;;;;;;;;;;5055789;28;20021;-77
2022/01/22 13:53:28;;;;;;;6.90;0.90;;;;;;;;;;5054447;28;20021;-76
2022/01/22 13:56:07;;;;;;;3.88;0.90;;;;;;;;;;5055803;28;20489;-77
2022/01/22 13:58:35;;;;;;;4.22;0.95;;;;;;;;;;5055784;28;20449;-76
2022/01/22 14:01:08;;;;;;;4.80;1.17;;;;;;;;;;5055504;28;20044;-77
2022/01/22 14:03:44;;;;;;;4.15;0.90;;;;;;;;;;5055497;28;20013;-76
2022/01/22 14:06:12;;;;;;;6.28;0.80;;;;;;;;;;5054197;28;20124;-76
2022/01/22 14:08:39;;;;;;;3.88;1.10;;;;;;;;;;5054178;28;20401;-77
2022/01/22 14:11:07;;;;;;;3.55;0.80;;;;;;;;;;5055435;28;20125;-76
2022/01/22 14:13:35;;;;;;;5.93;0.80;;;;;;;;;;5054153;28;20051;-76
2022/01/22 14:16:22;;;;;;;1.33;0.50;;;;;;;;;;5055409;28;20029;-76
2022/01/22 14:18:49;;;;;;;5.28;0.90;;;;;;;;;;5054054;28;20079;-76
2022/01/22 14:21:20;;;;;;;4.97;0.80;;;;;;;;;;5055325;28;20096;-75
2022/01/22 14:23:50;;;;;;;3.53;0.90;;;;;;;;;;5053949;28;20025;-75
2022/01/22 14:26:21;;;;;;;5.32;0.98;;;;;;;;;;5055116;28;20043;-75
2022/01/22 14:29:01;;;;;;;3.33;0.70;;;;;;;;;;5053925;28;20082;-76
2022/01/22 14:31:43;;;;;;;4.15;0.80;;;;;;;;;;5055242;28;20059;-76
2022/01/22 14:34:33;;;;;;;6.05;1.00;;;;;;;;;;5054928;28;20112;-74
2022/01/22 14:37:02;;;;;;;3.90;0.70;;;;;;;;;;5054463;28;20033;-75
2022/01/22 14:45:12;;;;;;;3.88;0.70;;;;;;;;;;5055096;28;20551;-76
2022/01/22 14:47:39;;;;;;;2.38;0.60;;;;;;;;;;5054813;28;20044;-76
2022/01/22 14:50:10;;;;;;;3.88;0.80;;;;;;;;;;5053378;28;20067;-76
2022/01/22 14:52:39;;;;;;;4.68;0.60;;;;;;;;;;5053312;28;20508;-77
2022/01/22 14:55:08;;;;;;;2.55;0.70;;;;;;;;;;5053319;28;20400;-75
2022/01/22 14:57:36;;;;;;;3.47;0.68;;;;;;;;;;5053266;28;20033;-76
2022/01/22 15:00:08;;;;;;;5.88;0.60;;;;;;;;;;5054345;28;20100;-76
2022/01/22 15:02:36;;;;;;;2.83;0.63;;;;;;;;;;5054439;28;20025;-76
2022/01/22 15:05:04;;;;;;;2.05;0.52;;;;;;;;;;5052908;28;20036;-75
2022/01/22 15:07:31;;;;;;;4.22;1.10;;;;;;;;;;5053037;28;20095;-75
2022/01/22 15:09:59;;;;;;;3.70;0.77;;;;;;;;;;5054348;28;20116;-76
2022/01/22 15:12:26;;;;;;;4.10;0.88;;;;;;;;;;5054197;28;20017;-76
2022/01/22 15:14:53;;;;;;;3.30;0.77;;;;;;;;;;5052901;28;20017;-75
2022/01/22 15:19:49;;;;;;;2.58;0.82;;;;;;;;;;5054099;28;20023;-75
2022/01/22 15:22:17;;;;;;;2.67;0.50;;;;;;;;;;5053892;28;20029;-75
2022/01/22 15:24:46;;;;;;;1.98;0.80;;;;;;;;;;5052715;28;20108;-76
2022/01/22 15:27:15;;;;;;;1.92;0.50;;;;;;;;;;5053958;28;20048;-75
2022/01/22 15:29:55;;;;;;;4.20;0.70;;;;;;;;;;5053884;28;20067;-76
2022/01/22 15:32:41;;;;;;;3.07;0.90;;;;;;;;;;5053907;28;20021;-75
2022/01/22 15:35:09;;;;;;;2.97;0.80;;;;;;;;;;5052445;28;20112;-76
2022/01/22 15:37:38;;;;;;;3.33;0.80;;;;;;;;;;5053687;28;20075;-76
2022/01/22 15:40:08;;;;;;;3.25;0.82;;;;;;;;;;5053694;28;20029;-76
2022/01/22 15:42:35;;;;;;;2.40;0.70;;;;;;;;;;5053692;28;20052;-76
2022/01/22 15:45:02;;;;;;;2.30;0.75;;;;;;;;;;5053621;28;20028;-76
2022/01/22 15:47:29;;;;;;;2.17;1.10;;;;;;;;;;5053587;28;20412;-76
2022/01/22 15:49:58;;;;;;;3.50;0.82;;;;;;;;;;5052215;28;20025;-75
2022/01/22 15:52:26;;;;;;;1.40;0.68;;;;;;;;;;5053415;28;20021;-75
2022/01/22 15:54:53;;;;;;;4.07;0.65;;;;;;;;;;5053607;28;20013;-76
2022/01/22 15:57:20;;;;;;;2.33;0.55;;;;;;;;;;5053427;28;20474;-76
2022/01/22 15:59:47;;;;;;;2.58;1.23;;;;;;;;;;5053416;28;20025;-76
2022/01/22 16:02:15;;;;;;;2.03;0.55;;;;;;;;;;5053343;28;20021;-76
2022/01/22 16:04:48;;;;;;;1.67;0.63;;;;;;;;;;5053109;28;20041;-76
2022/01/22 16:07:23;;;;;;;2.05;0.70;;;;;;;;;;5053344;28;20054;-76
2022/01/22 16:09:53;;;;;;;2.22;0.57;;;;;;;;;;5053371;28;20028;-76
2022/01/22 16:12:21;;;;;;;3.23;0.60;;;;;;;;;;5053301;28;20021;-76
2022/01/22 16:14:49;;;;;;;2.80;0.60;;;;;;;;;;5053098;28;20519;-76
2022/01/22 16:17:20;;;;;;;3.13;0.50;;;;;;;;;;5053156;28;20393;-76
2022/01/22 16:19:52;;;;;;;3.85;0.80;;;;;;;;;;5053186;28;20021;-76
2022/01/22 16:22:22;;;;;;;3.50;0.82;;;;;;;;;;5052978;28;20412;-76
2022/01/22 16:24:49;;;;;;;2.28;0.50;;;;;;;;;;5053105;28;20032;-75
2022/01/22 16:27:16;;;;;;;1.88;0.70;;;;;;;;;;5053062;28;20029;-75
2022/01/22 16:29:43;;;;;;;2.50;0.70;;;;;;;;;;5053027;28;20080;-75
2022/01/22 16:32:10;;;;;;;2.45;0.60;;;;;;;;;;5052926;28;20032;-77
2022/01/22 16:34:41;;;;;;;3.20;0.63;;;;;;;;;;5052944;28;20031;-76
2022/01/22 16:37:09;;;;;;;3.97;1.10;;;;;;;;;;5035653;28;20124;-76
2022/01/22 16:39:37;;;;;;;5.80;0.90;;;;;;;;;;5052862;28;20095;-76
2022/01/22 16:42:05;;;;;;;2.55;0.50;;;;;;;;;;5051482;28;20029;-75
2022/01/22 16:44:40;;;;;;;2.83;0.70;;;;;;;;;;5052844;28;20021;-75
2022/01/22 16:58:05;;;;;;;3.22;0.60;;;;;;;;;;5052744;28;20022;-76
2022/01/22 17:00:35;;;;;;;4.93;0.90;;;;;;;;;;5051378;28;20025;-75
2022/01/22 17:03:06;;;;;;;1.52;0.50;;;;;;;;;;5052751;28;20013;-75
2022/01/22 17:05:37;;;;;;;2.10;0.60;;;;;;;;;;5054542;28;20068;-76
2022/01/22 17:15:57;;;;;;;3.08;0.73;;;;;;;;;;5056715;28;20389;-76
2022/01/22 17:18:30;;;;;;;3.88;0.70;;;;;;;;;;5056452;28;20047;-75
2022/01/22 17:20:57;;;;;;;2.95;0.65;;;;;;;;;;5055089;28;20021;-76